AXI200 KMIA-KSAV
Flight info
| Callsign | AXI200 |
|---|---|
| Flight time | 1h 8m |
| Altitude | 41000 |
| Route | ALTNN2 DUCEN Q87 VIYAP |
| Aircraft | C700/M-SBDGHM1RWXY/LB2 |
Departure
| Time | 2026-05-05 22:08 |
|---|---|
| Airport | Miami International Airport (KMIA) |
Arrival
| Time | 2026-05-05 23:16 |
|---|---|
| Airport | Savannah Hilton Head International Airport (KSAV) |
| Time | Latitude | Longitude | Altitude | Speed | Heading |
|---|---|---|---|---|---|
| 2026-05-05 21:54 | 25.80591 | -80.29027 | 9 ft | 0 kts | 358° |
| 2026-05-05 22:03 | 25.80590 | -80.29038 | 9 ft | 4 kts | 231° |
| 2026-05-05 22:03 | 25.80585 | -80.29085 | 9 ft | 9 kts | 269° |
| 2026-05-05 22:03 | 25.80576 | -80.29137 | 9 ft | 5 kts | 204° |
| 2026-05-05 22:03 | 25.80530 | -80.29137 | 9 ft | 6 kts | 182° |
| 2026-05-05 22:04 | 25.80509 | -80.29138 | 9 ft | 0 kts | 182° |
| 2026-05-05 22:04 | 25.80508 | -80.29138 | 9 ft | 2 kts | 182° |
| 2026-05-05 22:04 | 25.80466 | -80.29141 | 9 ft | 10 kts | 194° |
| 2026-05-05 22:04 | 25.80431 | -80.29173 | 9 ft | 4 kts | 185° |
| 2026-05-05 22:05 | 25.80423 | -80.29173 | 9 ft | 0 kts | 181° |
| 2026-05-05 22:06 | 25.80417 | -80.29169 | 9 ft | 4 kts | 150° |
| 2026-05-05 22:06 | 25.80375 | -80.29133 | 10 ft | 9 kts | 139° |
| 2026-05-05 22:06 | 25.80336 | -80.29074 | 10 ft | 0 kts | 89° |
| 2026-05-05 22:07 | 25.80337 | -80.29031 | 10 ft | 23 kts | 87° |
| 2026-05-05 22:07 | 25.80357 | -80.28457 | 10 ft | 126 kts | 89° |
| 2026-05-05 22:08 | 25.80410 | -80.27222 | 498 ft | 180 kts | 88° |
| 2026-05-05 22:08 | 25.80469 | -80.25807 | 2075 ft | 184 kts | 86° |
| 2026-05-05 22:08 | 25.80539 | -80.24302 | 3526 ft | 209 kts | 85° |
| 2026-05-05 22:08 | 25.80626 | -80.22575 | 4730 ft | 239 kts | 85° |
| 2026-05-05 22:09 | 25.80800 | -80.20640 | 5916 ft | 266 kts | 76° |
| 2026-05-05 22:09 | 25.81582 | -80.18703 | 7186 ft | 283 kts | 54° |
| 2026-05-05 22:09 | 25.82938 | -80.17111 | 8709 ft | 289 kts | 34° |
| 2026-05-05 22:09 | 25.84741 | -80.16119 | 10178 ft | 292 kts | 13° |
| 2026-05-05 22:10 | 25.86811 | -80.15803 | 11205 ft | 313 kts | 359° |
| 2026-05-05 22:10 | 25.89012 | -80.15826 | 12606 ft | 316 kts | 351° |
| 2026-05-05 22:10 | 25.91168 | -80.16323 | 14108 ft | 318 kts | 339° |
| 2026-05-05 22:10 | 25.93291 | -80.17090 | 15432 ft | 322 kts | 339° |
| 2026-05-05 22:11 | 25.95441 | -80.17847 | 16795 ft | 327 kts | 340° |
| 2026-05-05 22:11 | 25.97635 | -80.18602 | 18141 ft | 333 kts | 340° |
| 2026-05-05 22:11 | 25.99903 | -80.19135 | 19309 ft | 343 kts | 349° |
| 2026-05-05 22:11 | 26.02301 | -80.19371 | 20431 ft | 349 kts | 351° |
| 2026-05-05 22:12 | 26.04770 | -80.19622 | 21506 ft | 354 kts | 350° |
| 2026-05-05 22:12 | 26.07245 | -80.19886 | 22536 ft | 360 kts | 350° |
| 2026-05-05 22:12 | 26.09764 | -80.20148 | 23546 ft | 366 kts | 349° |
| 2026-05-05 22:12 | 26.12319 | -80.20408 | 24392 ft | 371 kts | 349° |
| 2026-05-05 22:13 | 26.14866 | -80.20669 | 25257 ft | 374 kts | 349° |
| 2026-05-05 22:13 | 26.17470 | -80.20939 | 26142 ft | 378 kts | 349° |
| 2026-05-05 22:13 | 26.20136 | -80.21215 | 27025 ft | 382 kts | 349° |
| 2026-05-05 22:13 | 26.22799 | -80.21464 | 27875 ft | 386 kts | 350° |
| 2026-05-05 22:14 | 26.25456 | -80.21683 | 28716 ft | 390 kts | 350° |
| 2026-05-05 22:14 | 26.28210 | -80.21921 | 29553 ft | 394 kts | 349° |
| 2026-05-05 22:14 | 26.30957 | -80.22175 | 30367 ft | 398 kts | 349° |
| 2026-05-05 22:14 | 26.33720 | -80.22426 | 31219 ft | 400 kts | 349° |
| 2026-05-05 22:15 | 26.36504 | -80.22673 | 32010 ft | 402 kts | 349° |
| 2026-05-05 22:15 | 26.39301 | -80.22926 | 32760 ft | 404 kts | 349° |
| 2026-05-05 22:15 | 26.42111 | -80.23219 | 33489 ft | 406 kts | 348° |
| 2026-05-05 22:15 | 26.44893 | -80.23525 | 34174 ft | 409 kts | 348° |
| 2026-05-05 22:16 | 26.46809 | -80.23725 | 34602 ft | 411 kts | 349° |
| 2026-05-05 22:16 | 26.49667 | -80.24010 | 35256 ft | 413 kts | 349° |
| 2026-05-05 22:16 | 26.51565 | -80.24200 | 35673 ft | 414 kts | 348° |
| 2026-05-05 22:16 | 26.56295 | -80.24698 | 37074 ft | 405 kts | 347° |
| 2026-05-05 22:17 | 26.59056 | -80.25158 | 37816 ft | 399 kts | 345° |
| 2026-05-05 22:17 | 26.60906 | -80.25473 | 38278 ft | 397 kts | 345° |
| 2026-05-05 22:17 | 26.63631 | -80.25920 | 38887 ft | 394 kts | 345° |
| 2026-05-05 22:17 | 26.66334 | -80.26362 | 39338 ft | 392 kts | 345° |
| 2026-05-05 22:18 | 26.69021 | -80.26830 | 39733 ft | 389 kts | 343° |
| 2026-05-05 22:18 | 26.71621 | -80.27545 | 40108 ft | 383 kts | 338° |
| 2026-05-05 22:18 | 26.74117 | -80.28525 | 40455 ft | 379 kts | 334° |
| 2026-05-05 22:18 | 26.76582 | -80.29568 | 40799 ft | 378 kts | 334° |
| 2026-05-05 22:19 | 26.79019 | -80.30577 | 41120 ft | 377 kts | 334° |
| 2026-05-05 22:19 | 26.81472 | -80.31596 | 41415 ft | 376 kts | 334° |
| 2026-05-05 22:19 | 26.83915 | -80.32621 | 41687 ft | 375 kts | 334° |
| 2026-05-05 22:19 | 26.86355 | -80.33646 | 41982 ft | 373 kts | 334° |
| 2026-05-05 22:20 | 26.88800 | -80.34671 | 42022 ft | 378 kts | 334° |
| 2026-05-05 22:20 | 26.93787 | -80.36761 | 42032 ft | 388 kts | 334° |
| 2026-05-05 22:21 | 26.98916 | -80.38835 | 42042 ft | 395 kts | 335° |
| 2026-05-05 22:21 | 27.04071 | -80.40902 | 42040 ft | 391 kts | 335° |
| 2026-05-05 22:22 | 27.09167 | -80.42970 | 42036 ft | 387 kts | 334° |
| 2026-05-05 22:22 | 27.14163 | -80.45175 | 42033 ft | 386 kts | 333° |
| 2026-05-05 22:23 | 27.19177 | -80.47383 | 42042 ft | 388 kts | 333° |
| 2026-05-05 22:23 | 27.24199 | -80.49604 | 42043 ft | 388 kts | 333° |
| 2026-05-05 22:24 | 27.29230 | -80.51828 | 42047 ft | 388 kts | 333° |
| 2026-05-05 22:24 | 27.34257 | -80.54053 | 42041 ft | 388 kts | 333° |
| 2026-05-05 22:25 | 27.39324 | -80.56164 | 42040 ft | 389 kts | 335° |
| 2026-05-05 22:25 | 27.44422 | -80.58192 | 42051 ft | 389 kts | 334° |
| 2026-05-05 22:26 | 27.49521 | -80.60219 | 42051 ft | 388 kts | 334° |
| 2026-05-05 22:26 | 27.54616 | -80.62246 | 42055 ft | 388 kts | 334° |
| 2026-05-05 22:27 | 27.59709 | -80.64275 | 42048 ft | 388 kts | 334° |
| 2026-05-05 22:27 | 27.64802 | -80.66306 | 42048 ft | 388 kts | 334° |
| 2026-05-05 22:28 | 27.69894 | -80.68338 | 42045 ft | 388 kts | 334° |
| 2026-05-05 22:28 | 27.74983 | -80.70371 | 42053 ft | 388 kts | 334° |
| 2026-05-05 22:29 | 27.80071 | -80.72405 | 42045 ft | 388 kts | 334° |
| 2026-05-05 22:29 | 27.85157 | -80.74441 | 42046 ft | 387 kts | 334° |
| 2026-05-05 22:30 | 27.90237 | -80.76476 | 42045 ft | 387 kts | 334° |
| 2026-05-05 22:30 | 27.95309 | -80.78511 | 42046 ft | 386 kts | 334° |
| 2026-05-05 22:31 | 28.00373 | -80.80544 | 42048 ft | 386 kts | 334° |
| 2026-05-05 22:31 | 28.05435 | -80.82578 | 42048 ft | 386 kts | 334° |
| 2026-05-05 22:32 | 28.10502 | -80.84617 | 42057 ft | 387 kts | 334° |
| 2026-05-05 22:32 | 28.15574 | -80.86659 | 42057 ft | 387 kts | 334° |
| 2026-05-05 22:33 | 28.20647 | -80.88705 | 42060 ft | 387 kts | 334° |
| 2026-05-05 22:33 | 28.25723 | -80.90752 | 42064 ft | 387 kts | 334° |
| 2026-05-05 22:34 | 28.30794 | -80.92801 | 42069 ft | 387 kts | 334° |
| 2026-05-05 22:34 | 28.35872 | -80.94854 | 42073 ft | 387 kts | 334° |
| 2026-05-05 22:35 | 28.40953 | -80.96911 | 42077 ft | 388 kts | 333° |
| 2026-05-05 22:35 | 28.46034 | -80.98969 | 42078 ft | 388 kts | 333° |
| 2026-05-05 22:36 | 28.51112 | -81.01028 | 42077 ft | 388 kts | 333° |
| 2026-05-05 22:36 | 28.56202 | -81.03095 | 42076 ft | 388 kts | 333° |
| 2026-05-05 22:37 | 28.61282 | -81.05160 | 42066 ft | 388 kts | 333° |
| 2026-05-05 22:37 | 28.66365 | -81.07227 | 42092 ft | 388 kts | 333° |
| 2026-05-05 22:38 | 28.71479 | -81.09309 | 42068 ft | 386 kts | 333° |
| 2026-05-05 22:38 | 28.76528 | -81.11367 | 42069 ft | 384 kts | 333° |
| 2026-05-05 22:39 | 28.81548 | -81.13416 | 42064 ft | 382 kts | 333° |
| 2026-05-05 22:39 | 28.86552 | -81.15461 | 42066 ft | 383 kts | 333° |
| 2026-05-05 22:40 | 28.91585 | -81.17520 | 42066 ft | 385 kts | 333° |
| 2026-05-05 22:40 | 28.96606 | -81.19575 | 42107 ft | 387 kts | 333° |
| 2026-05-05 22:41 | 29.01670 | -81.21648 | 42076 ft | 386 kts | 333° |
| 2026-05-05 22:41 | 29.06739 | -81.23728 | 42073 ft | 383 kts | 333° |
| 2026-05-05 22:42 | 29.11744 | -81.25783 | 42071 ft | 381 kts | 333° |
| 2026-05-05 22:42 | 29.16739 | -81.27837 | 42070 ft | 382 kts | 333° |
| 2026-05-05 22:43 | 29.21749 | -81.29899 | 42063 ft | 384 kts | 333° |
| 2026-05-05 22:43 | 29.26870 | -81.31766 | 42078 ft | 392 kts | 339° |
| 2026-05-05 22:44 | 29.32363 | -81.32596 | 42085 ft | 403 kts | 347° |
| 2026-05-05 22:44 | 29.37960 | -81.32916 | 42088 ft | 402 kts | 347° |
| 2026-05-05 22:45 | 29.43541 | -81.33251 | 42088 ft | 401 kts | 347° |
| 2026-05-05 22:45 | 29.49073 | -81.33573 | 42087 ft | 400 kts | 347° |
| 2026-05-05 22:46 | 29.54629 | -81.33903 | 42101 ft | 400 kts | 347° |
| 2026-05-05 22:46 | 29.60185 | -81.34230 | 42074 ft | 399 kts | 347° |
| 2026-05-05 22:47 | 29.65730 | -81.34558 | 42076 ft | 399 kts | 347° |
| 2026-05-05 22:47 | 29.71264 | -81.34886 | 42079 ft | 398 kts | 347° |
| 2026-05-05 22:48 | 29.76790 | -81.35214 | 42079 ft | 398 kts | 347° |
| 2026-05-05 22:48 | 29.82336 | -81.35544 | 42084 ft | 400 kts | 347° |
| 2026-05-05 22:49 | 29.87920 | -81.35875 | 42089 ft | 403 kts | 347° |
| 2026-05-05 22:49 | 29.93522 | -81.36207 | 42089 ft | 403 kts | 347° |
| 2026-05-05 22:50 | 29.99109 | -81.36539 | 42088 ft | 401 kts | 347° |
| 2026-05-05 22:50 | 30.04681 | -81.36871 | 42070 ft | 400 kts | 347° |
| 2026-05-05 22:50 | 30.07472 | -81.37040 | 41574 ft | 402 kts | 347° |
| 2026-05-05 22:51 | 30.10250 | -81.37202 | 41048 ft | 397 kts | 347° |
| 2026-05-05 22:51 | 30.12984 | -81.37360 | 40528 ft | 391 kts | 347° |
| 2026-05-05 22:51 | 30.15676 | -81.37522 | 40014 ft | 384 kts | 347° |
| 2026-05-05 22:51 | 30.18325 | -81.37683 | 39508 ft | 379 kts | 347° |
| 2026-05-05 22:52 | 30.20949 | -81.37842 | 39011 ft | 377 kts | 347° |
| 2026-05-05 22:52 | 30.23567 | -81.38002 | 38474 ft | 379 kts | 347° |
| 2026-05-05 22:52 | 30.26177 | -81.38160 | 37979 ft | 383 kts | 347° |
| 2026-05-05 22:52 | 30.28865 | -81.38322 | 37465 ft | 390 kts | 348° |
| 2026-05-05 22:53 | 30.31601 | -81.38486 | 36947 ft | 396 kts | 348° |
| 2026-05-05 22:53 | 30.34361 | -81.38648 | 36422 ft | 398 kts | 348° |
| 2026-05-05 22:53 | 30.37131 | -81.38812 | 35895 ft | 398 kts | 348° |
| 2026-05-05 22:53 | 30.39897 | -81.38978 | 35367 ft | 398 kts | 348° |
| 2026-05-05 22:54 | 30.42661 | -81.39146 | 34846 ft | 398 kts | 349° |
| 2026-05-05 22:54 | 30.45427 | -81.39312 | 34319 ft | 398 kts | 349° |
| 2026-05-05 22:54 | 30.48204 | -81.39473 | 33761 ft | 400 kts | 349° |
| 2026-05-05 22:54 | 30.50993 | -81.39615 | 33245 ft | 404 kts | 350° |
| 2026-05-05 22:55 | 30.53822 | -81.39758 | 32711 ft | 410 kts | 350° |
| 2026-05-05 22:55 | 30.56692 | -81.39912 | 32167 ft | 416 kts | 351° |
| 2026-05-05 22:55 | 30.59599 | -81.40068 | 31615 ft | 421 kts | 351° |
| 2026-05-05 22:55 | 30.62541 | -81.40222 | 31057 ft | 425 kts | 351° |
| 2026-05-05 22:56 | 30.65502 | -81.40377 | 30498 ft | 428 kts | 352° |
| 2026-05-05 22:56 | 30.68486 | -81.40535 | 29905 ft | 431 kts | 352° |
| 2026-05-05 22:56 | 30.71479 | -81.40693 | 29320 ft | 430 kts | 352° |
| 2026-05-05 22:56 | 30.73455 | -81.40797 | 28941 ft | 428 kts | 352° |
| 2026-05-05 22:57 | 30.76413 | -81.40952 | 28373 ft | 424 kts | 352° |
| 2026-05-05 22:57 | 30.79350 | -81.41109 | 27815 ft | 421 kts | 352° |
| 2026-05-05 22:57 | 30.82269 | -81.41266 | 27258 ft | 419 kts | 352° |
| 2026-05-05 22:57 | 30.85172 | -81.41420 | 26704 ft | 417 kts | 352° |
| 2026-05-05 22:58 | 30.88070 | -81.41574 | 26151 ft | 416 kts | 352° |
| 2026-05-05 22:58 | 30.90957 | -81.41728 | 25603 ft | 415 kts | 352° |
| 2026-05-05 22:58 | 30.93838 | -81.41881 | 25056 ft | 413 kts | 352° |
| 2026-05-05 22:58 | 30.96709 | -81.42034 | 24522 ft | 411 kts | 352° |
| 2026-05-05 22:59 | 30.99562 | -81.42187 | 23974 ft | 410 kts | 352° |
| 2026-05-05 22:59 | 31.02405 | -81.42338 | 23401 ft | 408 kts | 352° |
| 2026-05-05 22:59 | 31.05228 | -81.42489 | 22854 ft | 404 kts | 352° |
| 2026-05-05 22:59 | 31.08027 | -81.42638 | 22322 ft | 400 kts | 352° |
| 2026-05-05 23:00 | 31.13546 | -81.42934 | 21275 ft | 394 kts | 352° |
| 2026-05-05 23:00 | 31.16276 | -81.43081 | 20757 ft | 392 kts | 353° |
| 2026-05-05 23:00 | 31.18999 | -81.43227 | 20240 ft | 391 kts | 353° |
| 2026-05-05 23:01 | 31.21672 | -81.43370 | 19753 ft | 389 kts | 353° |
| 2026-05-05 23:01 | 31.24374 | -81.43468 | 19252 ft | 388 kts | 357° |
| 2026-05-05 23:01 | 31.27013 | -81.43135 | 18980 ft | 375 kts | 6° |
| 2026-05-05 23:01 | 31.29562 | -81.42532 | 18639 ft | 376 kts | 7° |
| 2026-05-05 23:02 | 31.32166 | -81.41920 | 18296 ft | 386 kts | 7° |
| 2026-05-05 23:02 | 31.34810 | -81.41299 | 17912 ft | 388 kts | 8° |
| 2026-05-05 23:02 | 31.37448 | -81.40671 | 17520 ft | 385 kts | 8° |
| 2026-05-05 23:02 | 31.40061 | -81.40049 | 17134 ft | 382 kts | 8° |
| 2026-05-05 23:03 | 31.42660 | -81.39433 | 16754 ft | 380 kts | 8° |
| 2026-05-05 23:03 | 31.45246 | -81.38822 | 16378 ft | 378 kts | 8° |
| 2026-05-05 23:03 | 31.47819 | -81.38211 | 16007 ft | 376 kts | 8° |
| 2026-05-05 23:03 | 31.50382 | -81.37601 | 15640 ft | 375 kts | 8° |
| 2026-05-05 23:04 | 31.52933 | -81.36996 | 15284 ft | 373 kts | 8° |
| 2026-05-05 23:04 | 31.55473 | -81.36392 | 14926 ft | 372 kts | 8° |
| 2026-05-05 23:04 | 31.57968 | -81.35798 | 14577 ft | 370 kts | 8° |
| 2026-05-05 23:04 | 31.60485 | -81.35199 | 14229 ft | 368 kts | 8° |
| 2026-05-05 23:05 | 31.62989 | -81.34603 | 13872 ft | 367 kts | 8° |
| 2026-05-05 23:05 | 31.65485 | -81.34008 | 13497 ft | 365 kts | 8° |
| 2026-05-05 23:05 | 31.67968 | -81.33415 | 13111 ft | 363 kts | 8° |
| 2026-05-05 23:05 | 31.70432 | -81.32828 | 12739 ft | 360 kts | 8° |
| 2026-05-05 23:06 | 31.72882 | -81.32243 | 12361 ft | 358 kts | 8° |
| 2026-05-05 23:06 | 31.75315 | -81.31662 | 11990 ft | 356 kts | 8° |
| 2026-05-05 23:06 | 31.77732 | -81.31085 | 11632 ft | 354 kts | 8° |
| 2026-05-05 23:06 | 31.80136 | -81.30509 | 11274 ft | 351 kts | 8° |
| 2026-05-05 23:07 | 31.82490 | -81.29944 | 10910 ft | 337 kts | 7° |
| 2026-05-05 23:07 | 31.84717 | -81.29407 | 10550 ft | 316 kts | 7° |
| 2026-05-05 23:07 | 31.86813 | -81.28904 | 10181 ft | 298 kts | 6° |
| 2026-05-05 23:07 | 31.88800 | -81.28431 | 9824 ft | 285 kts | 6° |
| 2026-05-05 23:08 | 31.90717 | -81.27975 | 9422 ft | 278 kts | 7° |
| 2026-05-05 23:08 | 31.92612 | -81.27532 | 9033 ft | 278 kts | 6° |
| 2026-05-05 23:08 | 31.94534 | -81.27202 | 8657 ft | 281 kts | 4° |
| 2026-05-05 23:08 | 31.96483 | -81.26930 | 8284 ft | 283 kts | 3° |
| 2026-05-05 23:09 | 31.98441 | -81.26673 | 7912 ft | 283 kts | 3° |
| 2026-05-05 23:09 | 32.00394 | -81.26425 | 7552 ft | 282 kts | 2° |
| 2026-05-05 23:09 | 32.02317 | -81.26183 | 7194 ft | 281 kts | 3° |
| 2026-05-05 23:09 | 32.04255 | -81.25940 | 6863 ft | 280 kts | 2° |
| 2026-05-05 23:10 | 32.06189 | -81.25706 | 6515 ft | 279 kts | 3° |
| 2026-05-05 23:10 | 32.08125 | -81.25482 | 6139 ft | 279 kts | 3° |
| 2026-05-05 23:10 | 32.10059 | -81.25264 | 5762 ft | 278 kts | 2° |
| 2026-05-05 23:10 | 32.11977 | -81.25041 | 5385 ft | 277 kts | 2° |
| 2026-05-05 23:11 | 32.13890 | -81.24818 | 5026 ft | 275 kts | 2° |
| 2026-05-05 23:11 | 32.15791 | -81.24597 | 4652 ft | 274 kts | 3° |
| 2026-05-05 23:11 | 32.17687 | -81.24382 | 4216 ft | 274 kts | 3° |
| 2026-05-05 23:11 | 32.19598 | -81.24179 | 3720 ft | 276 kts | 3° |
| 2026-05-05 23:12 | 32.21509 | -81.24008 | 3232 ft | 274 kts | 4° |
| 2026-05-05 23:12 | 32.23335 | -81.23558 | 2980 ft | 262 kts | 28° |
| 2026-05-05 23:12 | 32.24470 | -81.22263 | 2961 ft | 203 kts | 69° |
| 2026-05-05 23:12 | 32.24504 | -81.20709 | 2915 ft | 192 kts | 114° |
| 2026-05-05 23:13 | 32.23530 | -81.19503 | 2694 ft | 204 kts | 155° |
| 2026-05-05 23:13 | 32.22177 | -81.19408 | 2432 ft | 194 kts | 192° |
| 2026-05-05 23:13 | 32.20916 | -81.19872 | 2190 ft | 183 kts | 192° |
| 2026-05-05 23:13 | 32.19749 | -81.20057 | 1991 ft | 158 kts | 178° |
| 2026-05-05 23:14 | 32.18688 | -81.20070 | 1638 ft | 147 kts | 178° |
| 2026-05-05 23:14 | 32.17832 | -81.20080 | 1437 ft | 109 kts | 176° |
| 2026-05-05 23:14 | 32.17106 | -81.20077 | 1148 ft | 104 kts | 177° |
| 2026-05-05 23:14 | 32.16371 | -81.20037 | 825 ft | 109 kts | 173° |
| 2026-05-05 23:15 | 32.15604 | -81.20035 | 560 ft | 110 kts | 177° |
| 2026-05-05 23:15 | 32.14854 | -81.20056 | 331 ft | 107 kts | 173° |
| 2026-05-05 23:15 | 32.14526 | -81.20041 | 275 ft | 109 kts | 171° |
| 2026-05-05 23:15 | 32.13749 | -81.20012 | 117 ft | 109 kts | 175° |
| 2026-05-05 23:16 | 32.13045 | -81.20013 | 41 ft | 88 kts | 174° |
| 2026-05-05 23:16 | 32.12605 | -81.20008 | 38 ft | 24 kts | 179° |
| 2026-05-05 23:16 | 32.12533 | -81.19943 | 41 ft | 12 kts | 107° |
| 2026-05-05 23:16 | 32.12510 | -81.19859 | 46 ft | 11 kts | 109° |
| 2026-05-05 23:17 | 32.12454 | -81.19811 | 44 ft | 12 kts | 180° |
| 2026-05-05 23:17 | 32.12430 | -81.19742 | 48 ft | 12 kts | 89° |
| 2026-05-05 23:17 | 32.12381 | -81.19710 | 44 ft | 10 kts | 189° |
| 2026-05-05 23:17 | 32.12382 | -81.19758 | 48 ft | 5 kts | 345° |
| 2026-05-05 23:18 | 32.12396 | -81.19748 | 48 ft | 1 kts | 77° |
| 2026-05-05 23:18 | 32.12395 | -81.19742 | 48 ft | 0 kts | 88° |